Time;durP1;ratioP1;P1;durP2;ratioP2;P2;SDS_P1;SDS_P2;PMS_P1;PMS_P2;Temp;Humidity;BMP_temperature;BMP_pressure;BME280_temperature;BME280_humidity;BME280_pressure;Samples;Min_cycle;Max_cycle;Signal;HPM_P1;HPM_P2
2022/05/22 00:00:01;;;;;;;2.57;2.23;;;;;;;11.99;100.00;100899.16;4940599;29;20220;-75
2022/05/22 00:02:28;;;;;;;3.73;1.90;;;;;;;12.01;100.00;100897.34;4941247;28;20195;-75
2022/05/22 00:04:54;;;;;;;2.87;2.10;;;;;;;12.02;100.00;100893.84;4940521;28;20228;-75
2022/05/22 00:07:21;;;;;;;2.80;1.97;;;;;;;12.02;100.00;100894.69;4939524;28;20232;-75
2022/05/22 00:09:47;;;;;;;3.70;2.13;;;;;;;11.97;100.00;100886.13;4943616;28;20306;-75
2022/05/22 00:12:15;;;;;;;3.70;2.27;;;;;;;11.89;100.00;100890.66;4944302;28;20548;-75
2022/05/22 00:14:42;;;;;;;2.17;1.93;;;;;;;11.84;100.00;100880.38;4944888;28;20192;-75
2022/05/22 00:17:09;;;;;;;1.97;1.77;;;;;;;11.81;100.00;100887.44;4941053;28;20329;-76
2022/05/22 00:19:37;;;;;;;2.63;1.80;;;;;;;11.72;100.00;100889.38;4943414;28;20205;-76
2022/05/22 00:22:04;;;;;;;3.23;2.20;;;;;;;11.67;100.00;100890.41;4945304;28;20205;-75
2022/05/22 00:24:31;;;;;;;1.83;1.60;;;;;;;11.67;100.00;100887.78;4936318;29;20314;-75
2022/05/22 00:26:58;;;;;;;2.00;1.80;;;;;;;11.68;100.00;100892.09;4943945;28;20218;-75
2022/05/22 00:29:31;;;;;;;3.37;2.03;;;;;;;11.61;100.00;100888.81;4925564;29;20218;-75
2022/05/22 00:31:58;;;;;;;3.37;1.53;;;;;;;11.61;100.00;100895.78;4928624;29;20209;-75
2022/05/22 00:34:25;;;;;;;4.73;1.80;;;;;;;11.63;100.00;100897.47;4938964;28;20774;-75
2022/05/22 00:36:52;;;;;;;1.73;1.63;;;;;;;11.62;100.00;100892.28;4945626;28;20319;-75
2022/05/22 00:39:19;;;;;;;4.47;1.70;;;;;;;11.70;100.00;100892.94;4940888;28;20207;-75
2022/05/22 00:41:49;;;;;;;3.20;1.97;;;;;;;11.72;100.00;100888.53;4932512;29;20262;-75
2022/05/22 00:44:15;;;;;;;2.87;2.10;;;;;;;11.68;100.00;100899.94;4926172;29;20222;-75
2022/05/22 00:46:43;;;;;;;2.37;1.53;;;;;;;11.66;100.00;100899.13;4944550;28;20638;-75
2022/05/22 00:49:14;;;;;;;3.70;1.70;;;;;;;11.66;100.00;100897.38;4945102;29;20224;-75
2022/05/22 00:51:45;;;;;;;1.87;1.10;;;;;;;11.65;100.00;100902.66;4929096;29;20208;-76
2022/05/22 00:54:17;;;;;;;1.37;1.27;;;;;;;11.64;100.00;100901.78;4922438;29;20203;-75
2022/05/22 00:56:49;;;;;;;2.20;1.50;;;;;;;11.62;100.00;100903.56;4920254;29;20293;-76
2022/05/22 00:59:20;;;;;;;1.27;1.03;;;;;;;11.59;100.00;100908.91;4928039;29;20678;-76
2022/05/22 01:01:48;;;;;;;4.23;1.87;;;;;;;11.60;100.00;100901.91;4928332;29;20219;-75
2022/05/22 01:04:20;;;;;;;2.43;1.27;;;;;;;11.60;100.00;100901.91;4945685;28;20236;-75
2022/05/22 01:06:51;;;;;;;1.50;1.30;;;;;;;11.59;100.00;100911.50;4946755;28;20251;-75
2022/05/22 01:09:19;;;;;;;1.67;1.00;;;;;;;11.51;100.00;100906.47;4939309;28;20233;-75
2022/05/22 01:11:46;;;;;;;1.47;0.90;;;;;;;11.52;100.00;100907.31;4928153;29;20209;-75
2022/05/22 01:14:18;;;;;;;2.70;1.20;;;;;;;11.51;100.00;100910.84;4941962;28;20199;-75
2022/05/22 01:16:47;;;;;;;1.97;1.10;;;;;;;11.45;100.00;100908.38;4926321;29;20740;-75
2022/05/22 01:19:17;;;;;;;1.10;1.00;;;;;;;11.53;100.00;100911.66;4927993;29;20208;-75
2022/05/22 01:21:50;;;;;;;1.17;1.07;;;;;;;11.48;100.00;100906.53;4942545;29;20212;-75
2022/05/22 01:24:17;;;;;;;0.90;0.80;;;;;;;11.49;100.00;100900.44;4939638;29;20650;-75
2022/05/22 01:26:43;;;;;;;2.40;1.23;;;;;;;11.50;100.00;100906.50;4939298;29;20230;-76
2022/05/22 01:29:19;;;;;;;1.37;1.07;;;;;;;11.50;100.00;100904.78;4921979;29;20291;-75
2022/05/22 01:31:46;;;;;;;2.67;1.30;;;;;;;11.47;100.00;100897.00;4928468;29;20308;-75
2022/05/22 01:34:13;;;;;;;1.13;1.03;;;;;;;11.54;100.00;100893.34;4938915;28;20231;-75
2022/05/22 01:36:40;;;;;;;1.40;1.30;;;;;;;11.53;100.00;100891.59;4927357;28;20280;-75
2022/05/22 01:39:08;;;;;;;1.40;1.20;;;;;;;11.58;100.00;100901.94;4940379;28;20622;-75
2022/05/22 01:41:46;;;;;;;1.33;1.00;;;;;;;11.64;100.00;100893.09;4926078;29;20507;-75
2022/05/22 01:44:12;;;;;;;1.40;1.17;;;;;;;11.60;100.00;100902.75;4942077;28;20334;-76
2022/05/22 01:46:38;;;;;;;1.27;1.00;;;;;;;11.59;100.00;100902.78;4941617;28;20564;-75
2022/05/22 01:49:08;;;;;;;1.40;1.00;;;;;;;11.63;100.00;100892.25;4938408;28;20679;-75
2022/05/22 01:51:38;;;;;;;1.53;1.20;;;;;;;11.60;100.00;100901.91;4944511;28;20460;-75
2022/05/22 01:54:05;;;;;;;1.93;1.13;;;;;;;11.50;100.00;100902.16;4924118;28;20195;-75
2022/05/22 01:56:36;;;;;;;1.80;1.20;;;;;;;11.51;100.00;100892.56;4944038;28;20231;-76
2022/05/22 01:59:05;;;;;;;1.03;1.00;;;;;;;11.49;100.00;100895.22;4939044;28;20251;-76
2022/05/22 02:01:35;;;;;;;1.50;1.30;;;;;;;11.47;100.00;100889.16;4924868;29;20217;-75
2022/05/22 02:04:04;;;;;;;4.10;1.50;;;;;;;11.49;100.00;100883.91;4924679;29;20274;-75
2022/05/22 02:06:34;;;;;;;1.20;1.10;;;;;;;11.49;100.00;100883.91;4926469;29;20306;-76
2022/05/22 02:09:08;;;;;;;2.80;1.37;;;;;;;11.44;100.00;100878.78;4932855;28;20257;-75
2022/05/22 02:11:41;;;;;;;1.60;1.10;;;;;;;11.47;100.00;100883.94;4923173;29;20574;-75
2022/05/22 02:14:08;;;;;;;1.20;1.10;;;;;;;11.42;100.00;100883.22;4925090;29;20319;-75
2022/05/22 02:16:34;;;;;;;1.57;1.23;;;;;;;11.44;100.00;100880.56;4925260;29;20258;-75
2022/05/22 02:19:00;;;;;;;1.40;1.20;;;;;;;11.41;100.00;100878.88;4940875;29;20218;-75
2022/05/22 02:21:29;;;;;;;2.17;1.40;;;;;;;11.35;100.00;100876.44;4942768;29;20702;-75
2022/05/22 02:23:55;;;;;;;3.17;1.60;;;;;;;11.40;100.00;100879.78;4923966;29;21072;-75
2022/05/22 02:26:22;;;;;;;1.93;1.67;;;;;;;11.34;100.00;100878.19;4923197;29;20222;-75
2022/05/22 02:28:50;;;;;;;1.53;1.43;;;;;;;11.35;100.00;100873.81;4922308;29;20561;-75
2022/05/22 02:31:17;;;;;;;1.97;1.73;;;;;;;11.39;100.00;100872.84;4918815;29;20684;-75
2022/05/22 02:33:49;;;;;;;2.47;1.93;;;;;;;11.51;100.00;100869.91;4936037;29;20318;-75
2022/05/22 02:36:17;;;;;;;4.67;2.03;;;;;;;11.42;100.00;100864.09;4938094;29;20227;-75
2022/05/22 02:38:47;;;;;;;3.50;2.20;;;;;;;11.49;100.00;100863.03;4937267;29;20763;-75
2022/05/22 02:41:19;;;;;;;2.93;2.20;;;;;;;11.40;100.00;100860.63;4940906;29;20203;-76
2022/05/22 02:43:54;;;;;;;4.23;2.30;;;;;;;11.41;100.00;100868.44;4922952;29;20247;-76
2022/05/22 02:46:21;;;;;;;2.90;2.20;;;;;;;11.42;100.00;100864.09;4938962;28;20240;-75
2022/05/22 02:48:51;;;;;;;2.20;1.97;;;;;;;11.43;100.00;100860.56;4924282;29;20805;-75
2022/05/22 02:51:21;;;;;;;3.47;2.30;;;;;;;11.42;100.00;100854.50;4940681;28;20200;-75
2022/05/22 02:53:48;;;;;;;2.87;2.20;;;;;;;11.40;100.00;100863.25;4923716;29;20765;-75
2022/05/22 02:56:21;;;;;;;3.03;2.47;;;;;;;11.37;100.00;100854.59;4939421;29;20234;-76
2022/05/22 02:59:07;;;;;;;2.20;2.00;;;;;;;11.43;100.00;100860.56;4942992;28;20205;-75
2022/05/22 03:02:06;;;;;;;2.37;2.17;;;;;;;11.35;100.00;100855.53;4929739;28;20300;-76
2022/05/22 03:04:35;;;;;;;2.63;2.20;;;;;;;11.35;100.00;100851.19;4927708;29;20417;-76
2022/05/22 03:07:05;;;;;;;3.63;2.30;;;;;;;11.35;100.00;100855.53;4938689;28;20224;-76
2022/05/22 03:09:32;;;;;;;2.13;1.90;;;;;;;11.35;100.00;100858.16;4925719;29;20230;-76
2022/05/22 03:12:06;;;;;;;2.40;1.97;;;;;;;11.39;100.00;100856.31;4920806;28;20753;-76
2022/05/22 03:14:35;;;;;;;2.77;2.30;;;;;;;11.43;100.00;100853.56;4925453;29;20226;-76
2022/05/22 03:17:01;;;;;;;2.57;2.10;;;;;;;11.40;100.00;100858.03;4927534;29;20335;-76
2022/05/22 03:19:35;;;;;;;2.80;2.00;;;;;;;11.35;100.00;100855.53;4917299;29;20346;-76
2022/05/22 03:22:02;;;;;;;4.17;2.00;;;;;;;11.36;100.00;100857.25;4925028;29;20293;-76
2022/05/22 03:24:31;;;;;;;2.93;2.20;;;;;;;11.36;100.00;100858.13;4930823;29;20245;-76
2022/05/22 03:27:01;;;;;;;2.03;1.83;;;;;;;11.46;100.00;100860.50;4942653;28;20228;-76
2022/05/22 03:29:30;;;;;;;1.97;1.70;;;;;;;11.45;100.00;100856.16;4940762;29;20214;-76
2022/05/22 03:31:58;;;;;;;2.27;1.87;;;;;;;11.49;100.00;100863.88;4938986;29;20210;-76
2022/05/22 03:34:25;;;;;;;2.27;1.77;;;;;;;11.48;100.00;100869.13;4922461;29;20200;-76
2022/05/22 03:36:55;;;;;;;4.30;1.87;;;;;;;11.52;100.00;100866.41;4939815;28;20203;-76
2022/05/22 03:39:22;;;;;;;2.57;1.60;;;;;;;11.59;100.00;100871.47;4940084;28;20195;-76
2022/05/22 03:41:49;;;;;;;1.60;1.50;;;;;;;11.58;100.00;100868.00;4944482;29;20752;-76
2022/05/22 03:44:18;;;;;;;1.70;1.20;;;;;;;11.61;100.00;100869.66;4924912;29;20555;-76
2022/05/22 03:46:48;;;;;;;1.60;1.40;;;;;;;11.58;100.00;100873.22;4938758;29;20215;-76
2022/05/22 03:49:17;;;;;;;2.80;1.17;;;;;;;11.56;100.00;100881.09;4937085;29;20242;-76
2022/05/22 03:51:46;;;;;;;5.37;1.30;;;;;;;11.58;100.00;100880.22;4944788;28;20575;-76
2022/05/22 03:54:15;;;;;;;1.70;1.30;;;;;;;11.55;100.00;100881.13;4943877;29;20302;-76
2022/05/22 03:56:44;;;;;;;2.37;1.00;;;;;;;11.59;100.00;100881.91;4926434;29;20218;-76
2022/05/22 03:59:20;;;;;;;2.00;1.10;;;;;;;11.69;100.00;100880.78;4926523;29;20214;-76
2022/05/22 04:01:47;;;;;;;2.30;1.23;;;;;;;11.69;100.00;100876.38;4926625;28;20202;-76
2022/05/22 04:04:16;;;;;;;2.57;1.43;;;;;;;11.71;100.00;100877.22;4928068;29;20406;-76
2022/05/22 04:06:43;;;;;;;1.93;1.20;;;;;;;11.78;100.00;100877.06;4942617;28;20228;-76
2022/05/22 04:09:11;;;;;;;2.80;1.27;;;;;;;11.79;100.00;100879.63;4921912;29;20543;-75
2022/05/22 04:11:56;;;;;;;1.37;1.00;;;;;;;11.84;100.00;100884.75;4943751;29;20260;-76
2022/05/22 04:14:23;;;;;;;2.57;1.37;;;;;;;11.79;100.00;100887.47;4924613;29;20199;-76
2022/05/22 04:16:58;;;;;;;3.60;1.43;;;;;;;11.79;100.00;100882.25;4942511;29;20275;-76
2022/05/22 04:19:26;;;;;;;3.27;1.10;;;;;;;11.77;100.00;100888.38;4939516;28;20216;-76
2022/05/22 04:21:52;;;;;;;1.03;0.93;;;;;;;11.74;99.80;100878.88;4938754;29;20236;-76
2022/05/22 04:27:10;;;;;;;1.10;0.90;;;;;;;11.86;99.47;100893.38;4928075;29;20237;-76
2022/05/22 04:29:37;;;;;;;1.93;1.20;;;;;;;11.90;99.31;100885.44;4928203;29;20213;-76
2022/05/22 04:32:05;;;;;;;2.57;1.27;;;;;;;11.96;98.07;100884.44;4943072;29;20202;-76
2022/05/22 04:34:59;;;;;;;2.70;1.00;;;;;;;11.97;98.95;100883.53;4942005;29;20569;-76
2022/05/22 04:37:28;;;;;;;1.63;1.00;;;;;;;12.03;99.37;100885.09;4929656;29;20237;-76
2022/05/22 04:39:58;;;;;;;2.07;1.10;;;;;;;12.00;96.09;100890.44;4941782;29;20616;-76
2022/05/22 04:42:24;;;;;;;1.50;0.93;;;;;;;12.00;95.90;100898.28;4945769;29;20631;-76
2022/05/22 04:44:51;;;;;;;1.97;1.10;;;;;;;12.01;95.07;100895.59;4942046;29;20219;-76
2022/05/22 04:47:38;;;;;;;3.73;1.40;;;;;;;11.99;94.55;100907.00;4945245;29;20732;-76
2022/05/22 04:50:19;;;;;;;4.47;1.20;;;;;;;12.04;93.62;100902.50;4945043;28;20233;-76
2022/05/22 04:53:04;;;;;;;2.40;0.97;;;;;;;12.09;94.19;100905.84;4946837;29;20217;-76
2022/05/22 04:55:45;;;;;;;2.00;1.27;;;;;;;12.11;94.74;100910.13;4929036;29;20591;-76
2022/05/22 04:58:16;;;;;;;2.90;1.13;;;;;;;12.15;94.61;100903.03;4929594;29;20293;-76
2022/05/22 05:00:43;;;;;;;3.00;1.00;;;;;;;12.19;92.75;100902.09;4943671;29;20273;-76
2022/05/22 05:03:13;;;;;;;2.63;1.20;;;;;;;12.20;93.12;100905.53;4930712;29;20212;-76
2022/05/22 05:05:41;;;;;;;1.73;1.00;;;;;;;12.18;90.68;100908.19;4929078;29;20931;-76
2022/05/22 05:08:08;;;;;;;2.67;1.10;;;;;;;12.15;90.83;100905.66;4942455;28;20304;-76
2022/05/22 05:10:44;;;;;;;2.30;1.10;;;;;;;12.19;90.66;100907.31;4946151;29;20258;-76
2022/05/22 05:13:24;;;;;;;3.30;1.30;;;;;;;12.33;91.91;100901.69;4944918;29;20209;-76
2022/05/22 05:16:02;;;;;;;2.87;1.00;;;;;;;12.25;90.58;100904.50;4943959;29;20213;-76
2022/05/22 05:18:35;;;;;;;4.40;1.33;;;;;;;12.33;90.82;100906.91;4928320;29;20704;-76
2022/05/22 05:21:06;;;;;;;2.70;1.00;;;;;;;12.34;89.68;100918.22;4929455;29;20227;-76
2022/05/22 05:23:34;;;;;;;2.80;1.10;;;;;;;12.36;89.33;100914.66;4929448;29;20199;-76
2022/05/22 05:26:12;;;;;;;1.10;0.60;;;;;;;12.42;89.47;100918.88;4926539;29;20330;-76
2022/05/22 05:28:39;;;;;;;1.37;0.77;;;;;;;12.44;89.09;100923.13;4927495;29;20621;-76
2022/05/22 05:31:08;;;;;;;3.13;1.07;;;;;;;12.53;89.53;100919.41;4926623;29;20195;-76
2022/05/22 05:33:37;;;;;;;2.40;0.90;;;;;;;12.56;88.66;100927.16;4925922;29;20286;-76
2022/05/22 05:36:30;;;;;;;1.47;0.80;;;;;;;12.64;88.26;100919.06;4943867;29;20234;-76
2022/05/22 05:39:10;;;;;;;2.47;0.93;;;;;;;12.75;88.19;100930.09;4941116;28;20301;-76
2022/05/22 05:41:54;;;;;;;1.20;1.10;;;;;;;12.78;88.25;100934.34;4926538;29;20305;-76
2022/05/22 05:44:22;;;;;;;1.67;0.90;;;;;;;12.79;87.93;100934.31;4924838;29;20695;-76
2022/05/22 05:46:57;;;;;;;3.13;0.80;;;;;;;12.80;87.21;100929.94;4943628;29;20700;-76
2022/05/22 05:49:31;;;;;;;2.17;1.00;;;;;;;12.83;86.68;100937.69;4923051;29;20541;-76
2022/05/22 05:52:18;;;;;;;2.33;0.93;;;;;;;12.83;86.15;100945.53;4947380;28;20210;-76
2022/05/22 05:54:53;;;;;;;0.70;0.60;;;;;;;12.88;86.13;100944.50;4921614;29;20214;-76
2022/05/22 05:57:34;;;;;;;2.60;0.90;;;;;;;12.94;86.72;100945.22;4935678;29;20225;-76
2022/05/22 06:00:01;;;;;;;0.90;0.80;;;;;;;12.99;87.59;100945.94;4929077;29;20297;-76
2022/05/22 06:02:31;;;;;;;1.47;0.90;;;;;;;13.00;84.98;100942.41;4944391;29;20202;-76
2022/05/22 06:04:57;;;;;;;3.03;0.83;;;;;;;13.08;86.29;100925.53;4929772;29;20220;-76
2022/05/22 06:07:25;;;;;;;1.07;0.77;;;;;;;13.17;85.09;100927.00;4944314;28;22072;-76
2022/05/22 06:09:52;;;;;;;1.07;0.80;;;;;;;13.23;84.64;100925.97;4926920;29;20214;-76
2022/05/22 06:12:41;;;;;;;3.60;1.27;;;;;;;13.33;84.86;100923.94;4943440;29;20214;-76
2022/05/22 06:15:10;;;;;;;0.80;0.70;;;;;;;13.38;83.35;100922.03;4943021;29;20299;-76
2022/05/22 06:17:43;;;;;;;2.10;0.80;;;;;;;13.39;83.38;100911.50;4927190;29;20562;-76
2022/05/22 06:20:14;;;;;;;2.23;0.77;;;;;;;13.52;85.39;100909.31;4926577;29;20226;-76
2022/05/22 06:22:46;;;;;;;1.53;1.10;;;;;;;13.62;85.52;100917.72;4927131;29;20203;-76
2022/05/22 06:25:32;;;;;;;2.07;1.07;;;;;;;13.62;82.42;100915.97;4941703;28;20856;-76
2022/05/22 06:28:19;;;;;;;3.77;0.93;;;;;;;13.61;82.61;100916.88;4940057;29;20222;-76
2022/05/22 06:31:12;;;;;;;2.93;1.00;;;;;;;13.71;81.50;100929.66;4927546;29;20219;-76
2022/05/22 06:33:57;;;;;;;3.60;0.90;;;;;;;13.77;84.46;100914.59;4944861;29;20606;-76
2022/05/22 06:36:42;;;;;;;2.77;1.00;;;;;;;13.78;81.79;100929.38;4937104;28;20238;-76
2022/05/22 06:42:05;;;;;;;0.80;0.80;;;;;;;13.81;84.19;100934.53;4945656;28;20346;-76
2022/05/22 06:44:53;;;;;;;1.37;0.80;;;;;;;13.80;79.78;100931.97;4928049;29;20210;-76
2022/05/22 06:47:48;;;;;;;3.80;1.03;;;;;;;13.81;80.20;100926.66;4923350;29;20331;-76
2022/05/22 06:50:33;;;;;;;2.13;0.90;;;;;;;13.79;78.44;100935.47;4938913;29;20214;-76
2022/05/22 06:53:11;;;;;;;9.20;0.90;;;;;;;13.97;80.70;100920.88;4940844;29;20421;-76
2022/05/22 06:55:58;;;;;;;2.40;0.80;;;;;;;14.10;80.05;100926.53;4935209;29;20440;-76
2022/05/22 06:58:34;;;;;;;1.90;0.80;;;;;;;14.20;78.00;100928.78;4940613;29;20728;-77
2022/05/22 07:01:15;;;;;;;3.37;0.90;;;;;;;14.23;76.36;100940.94;4939467;28;20610;-76
2022/05/22 07:04:05;;;;;;;2.10;0.60;;;;;;;14.12;76.19;100929.97;4926901;28;20257;-76
2022/05/22 07:06:46;;;;;;;2.43;0.83;;;;;;;14.24;75.29;100936.53;4924472;29;20262;-76
2022/05/22 07:09:16;;;;;;;1.13;0.77;;;;;;;14.34;75.97;100924.81;4938563;28;20672;-76
2022/05/22 07:12:05;;;;;;;3.03;0.70;;;;;;;14.39;73.62;100928.13;4941926;29;20213;-76
2022/05/22 07:14:47;;;;;;;1.73;0.93;;;;;;;14.49;75.07;100920.72;4920423;29;20220;-76
2022/05/22 07:17:28;;;;;;;3.37;0.70;;;;;;;14.49;75.47;100937.34;4919688;28;20277;-76
2022/05/22 07:20:00;;;;;;;3.53;1.10;;;;;;;14.49;76.84;100921.63;4938111;28;20260;-75
2022/05/22 07:22:54;;;;;;;2.77;0.80;;;;;;;14.70;77.44;100912.06;4939151;28;20217;-75
2022/05/22 07:25:46;;;;;;;2.40;0.80;;;;;;;14.93;76.86;100919.06;4936776;28;20234;-75
2022/05/22 07:28:19;;;;;;;4.70;1.23;;;;;;;14.89;73.13;100924.50;4925607;28;20233;-74
2022/05/22 07:31:14;;;;;;;3.73;0.80;;;;;;;14.88;73.15;100914.88;4933241;28;20252;-75
2022/05/22 07:34:10;;;;;;;1.73;0.70;;;;;;;14.76;72.62;100913.63;4938632;28;20206;-75
2022/05/22 07:37:06;;;;;;;1.83;0.70;;;;;;;14.96;74.28;100903.16;4920653;28;20241;-76
2022/05/22 07:39:42;;;;;;;3.40;0.83;;;;;;;14.82;72.81;100904.66;4926596;28;21042;-76
2022/05/22 07:42:18;;;;;;;1.53;0.80;;;;;;;14.79;73.52;100900.34;4934224;28;20352;-76
2022/05/22 07:45:15;;;;;;;0.70;0.70;;;;;;;14.96;72.92;100897.91;4941471;28;20237;-76
2022/05/22 07:47:47;;;;;;;1.13;0.80;;;;;;;15.12;71.81;100902.56;4925338;29;20236;-76
2022/05/22 07:50:21;;;;;;;2.40;0.60;;;;;;;15.26;70.59;100899.38;4942589;28;20297;-76
2022/05/22 07:53:07;;;;;;;2.23;0.77;;;;;;;15.39;70.02;100899.72;4943070;29;20206;-77
2022/05/22 07:55:53;;;;;;;2.27;1.07;;;;;;;15.69;72.11;100892.31;4940922;28;20648;-77
2022/05/22 07:58:24;;;;;;;1.60;0.70;;;;;;;15.97;73.82;100878.84;4933305;28;20294;-77
2022/05/22 08:00:59;;;;;;;1.83;0.70;;;;;;;15.95;68.81;100888.56;4924024;29;20507;-77
2022/05/22 08:03:44;;;;;;;1.03;0.60;;;;;;;15.80;68.08;100892.72;4935564;28;20205;-77
2022/05/22 08:06:18;;;;;;;1.90;0.70;;;;;;;15.79;66.57;100895.41;4942718;28;20230;-77
2022/05/22 08:08:45;;;;;;;1.50;0.50;;;;;;;15.89;68.95;100889.69;4928339;29;20213;-77
2022/05/22 08:11:16;;;;;;;2.03;0.73;;;;;;;16.04;66.53;100887.28;4925659;29;20217;-77
2022/05/22 08:13:51;;;;;;;0.60;0.50;;;;;;;16.17;64.83;100895.50;4943311;28;20242;-77
2022/05/22 08:16:21;;;;;;;0.97;0.70;;;;;;;16.31;65.27;100900.16;4927939;28;20226;-77
2022/05/22 08:19:03;;;;;;;1.10;0.63;;;;;;;16.13;67.24;100889.53;4926278;28;20210;-77
2022/05/22 08:21:29;;;;;;;1.43;0.60;;;;;;;16.07;65.65;100889.78;4926259;29;20211;-77
2022/05/22 08:24:00;;;;;;;1.43;0.60;;;;;;;16.16;65.76;100888.53;4920324;29;20234;-77
2022/05/22 08:26:31;;;;;;;1.90;0.57;;;;;;;16.17;64.67;100898.13;4928899;29;20370;-77
2022/05/22 08:28:58;;;;;;;4.50;0.70;;;;;;;15.98;66.11;100896.31;4926494;28;20206;-77
2022/05/22 08:31:29;;;;;;;1.50;0.50;;;;;;;16.05;68.07;100889.84;4930472;28;20265;-77
2022/05/22 08:33:56;;;;;;;2.73;0.60;;;;;;;16.05;64.49;100900.38;4928081;29;20199;-77
2022/05/22 08:36:22;;;;;;;2.47;0.50;;;;;;;16.18;62.20;100907.72;4949128;28;20663;-77
2022/05/22 08:38:48;;;;;;;6.00;0.80;;;;;;;16.25;61.11;100902.13;4944477;28;20777;-77
2022/05/22 08:41:20;;;;;;;1.33;0.60;;;;;;;16.53;65.05;100895.56;4934066;28;20206;-77
2022/05/22 08:43:50;;;;;;;3.43;0.60;;;;;;;16.70;62.75;100884.25;4949416;28;20206;-77
2022/05/22 08:46:25;;;;;;;0.50;0.50;;;;;;;16.71;61.51;100898.25;4950710;28;20329;-77
2022/05/22 08:48:57;;;;;;;0.63;0.57;;;;;;;16.68;58.68;100895.81;4930751;29;20215;-78
2022/05/22 08:51:32;;;;;;;1.40;0.77;;;;;;;16.87;61.76;100886.13;4943755;28;20721;-77
2022/05/22 08:54:09;;;;;;;1.53;0.67;;;;;;;16.67;60.96;100894.94;4940361;28;20198;-77
2022/05/22 08:59:25;;;;;;;0.83;0.70;;;;;;;16.32;61.57;100894.78;4943686;28;20199;-77
2022/05/22 09:01:56;;;;;;;0.97;0.60;;;;;;;16.39;60.48;100895.38;4936728;28;20202;-77
2022/05/22 09:04:34;;;;;;;1.47;0.77;;;;;;;16.44;63.39;100896.00;4937239;28;20229;-77
2022/05/22 09:07:12;;;;;;;1.50;0.60;;;;;;;16.64;64.68;100890.69;4941364;28;20230;-77
2022/05/22 09:09:42;;;;;;;0.90;0.47;;;;;;;16.64;64.04;100887.19;4929484;29;20670;-77
2022/05/22 09:12:54;;;;;;;0.87;0.43;;;;;;;16.28;61.79;100893.22;4944667;28;20207;-77
2022/05/22 09:15:27;;;;;;;2.63;0.70;;;;;;;16.24;61.33;100896.94;4923746;28;20675;-77
2022/05/22 09:18:00;;;;;;;2.07;0.63;;;;;;;16.56;63.38;100889.31;4943324;28;20598;-77
2022/05/22 09:20:40;;;;;;;1.03;0.40;;;;;;;16.85;60.94;100887.97;4936476;28;20211;-78
2022/05/22 09:23:22;;;;;;;2.50;0.70;;;;;;;17.09;61.24;100885.91;4939474;28;20587;-77
2022/05/22 09:26:00;;;;;;;1.83;0.60;;;;;;;17.02;58.53;100892.41;4939279;28;20198;-77
2022/05/22 09:28:46;;;;;;;0.87;0.70;;;;;;;16.84;58.51;100895.00;4944264;28;20292;-77
2022/05/22 09:31:25;;;;;;;0.93;0.57;;;;;;;17.04;61.00;100885.28;4939637;28;20477;-77
2022/05/22 09:34:02;;;;;;;2.37;0.80;;;;;;;17.21;59.25;100895.00;4945237;28;20202;-77
2022/05/22 09:36:39;;;;;;;1.10;0.60;;;;;;;17.12;59.01;100890.19;4946299;29;20214;-77
2022/05/22 09:39:21;;;;;;;2.60;0.60;;;;;;;17.31;61.00;100884.88;4945888;28;20213;-77
2022/05/22 09:42:00;;;;;;;1.87;0.67;;;;;;;17.56;58.30;100895.84;4947272;28;20202;-77
2022/05/22 09:44:42;;;;;;;2.30;0.67;;;;;;;17.46;58.24;100905.16;4927098;29;20206;-77
2022/05/22 09:47:34;;;;;;;1.47;1.07;;;;;;;17.47;57.81;100898.13;4942681;29;20240;-77
2022/05/22 09:50:11;;;;;;;3.23;0.60;;;;;;;17.19;57.00;100902.97;4929641;29;20687;-77
2022/05/22 09:52:47;;;;;;;1.33;0.70;;;;;;;16.87;58.78;100899.28;4936103;28;20200;-77
2022/05/22 09:55:26;;;;;;;1.43;0.80;;;;;;;16.87;58.73;100896.66;4938251;28;20273;-77
2022/05/22 09:58:09;;;;;;;1.23;0.60;;;;;;;17.19;58.39;100897.72;4939426;28;20729;-77
2022/05/22 10:00:45;;;;;;;1.50;0.50;;;;;;;17.47;56.51;100898.13;4935927;28;20957;-77
2022/05/22 10:03:18;;;;;;;1.10;0.60;;;;;;;17.67;59.44;100891.81;4935690;28;20428;-77
2022/05/22 10:05:59;;;;;;;1.97;0.70;;;;;;;17.81;58.82;100881.41;4940672;28;20250;-77
2022/05/22 10:08:39;;;;;;;0.43;0.40;;;;;;;17.98;53.39;100891.97;4939332;28;20218;-77
2022/05/22 10:11:14;;;;;;;0.80;0.50;;;;;;;18.03;53.84;100896.13;4942744;28;21007;-77
2022/05/22 10:13:54;;;;;;;1.90;0.47;;;;;;;17.96;54.30;100883.28;4938315;28;20258;-77
2022/05/22 10:19:14;;;;;;;0.90;0.63;;;;;;;17.80;55.43;100879.72;4921997;29;20210;-73
2022/05/22 10:21:48;;;;;;;2.13;0.60;;;;;;;17.96;56.45;100883.28;4922970;29;20228;-69
2022/05/22 10:24:32;;;;;;;1.73;0.60;;;;;;;17.79;53.45;100885.91;4921454;29;20318;-70
2022/05/22 10:27:13;;;;;;;0.60;0.40;;;;;;;17.73;55.29;100889.72;4926923;29;20218;-71
2022/05/22 10:29:44;;;;;;;2.53;0.53;;;;;;;17.84;58.99;100875.97;4905716;29;20217;-71
2022/05/22 10:32:17;;;;;;;1.60;0.73;;;;;;;18.02;57.39;100878.63;4926906;29;20218;-70
2022/05/22 10:34:50;;;;;;;2.00;0.50;;;;;;;18.33;54.04;100886.56;4927912;29;20282;-71
2022/05/22 10:37:24;;;;;;;0.70;0.40;;;;;;;18.60;54.38;100886.00;4920460;29;20208;-75
2022/05/22 10:39:52;;;;;;;2.33;0.60;;;;;;;18.51;52.57;100887.34;4916650;29;20852;-75
2022/05/22 10:45:19;;;;;;;1.80;0.60;;;;;;;18.60;52.12;100883.34;4926009;29;20227;-75
2022/05/22 10:47:46;;;;;;;0.73;0.70;;;;;;;18.67;52.39;100883.88;4921520;29;20230;-71
2022/05/22 10:50:20;;;;;;;0.50;0.50;;;;;;;18.87;55.01;100873.06;4924044;29;20210;-72
2022/05/22 10:52:47;;;;;;;0.67;0.60;;;;;;;19.09;51.47;100867.38;4920059;29;20196;-71
2022/05/22 10:55:30;;;;;;;0.77;0.40;;;;;;;19.17;52.38;100877.53;4928514;29;20669;-71
2022/05/22 10:57:59;;;;;;;1.03;0.50;;;;;;;19.06;54.12;100875.47;4927585;29;20206;-70
2022/05/22 11:00:26;;;;;;;0.57;0.57;;;;;;;19.24;51.46;100878.88;4921657;29;20211;-73
2022/05/22 11:02:53;;;;;;;0.83;0.50;;;;;;;19.10;50.36;100877.03;4921533;29;20681;-70
2022/05/22 11:05:23;;;;;;;0.60;0.50;;;;;;;19.16;51.38;100880.25;4918771;29;20238;-69
2022/05/22 11:07:51;;;;;;;1.57;0.57;;;;;;;19.04;50.57;100877.38;4922652;29;20219;-70
2022/05/22 11:10:25;;;;;;;1.20;0.50;;;;;;;18.85;51.06;100882.84;4927858;29;20211;-72
2022/05/22 11:13:01;;;;;;;0.73;0.50;;;;;;;18.59;51.73;100881.66;4914734;29;20748;-72
2022/05/22 11:15:31;;;;;;;0.50;0.50;;;;;;;18.51;51.53;100876.78;4928683;29;20226;-71
2022/05/22 11:18:09;;;;;;;0.60;0.40;;;;;;;18.72;53.50;100868.63;4919933;29;20217;-72
2022/05/22 11:20:36;;;;;;;0.40;0.37;;;;;;;18.98;53.36;100858.38;4928808;29;20214;-71
2022/05/22 11:23:11;;;;;;;1.33;0.63;;;;;;;19.27;50.76;100865.44;4926473;29;20727;-70
2022/05/22 11:25:50;;;;;;;0.70;0.57;;;;;;;19.28;53.53;100856.59;4928092;29;20222;-71
2022/05/22 11:28:46;;;;;;;0.60;0.47;;;;;;;19.21;50.34;100854.41;4923356;29;20302;-72
2022/05/22 11:31:27;;;;;;;1.37;0.50;;;;;;;18.66;50.68;100856.63;4919535;29;20218;-70
2022/05/22 11:34:12;;;;;;;1.77;0.80;;;;;;;18.17;51.63;100857.53;4923728;29;20231;-72
2022/05/22 11:36:53;;;;;;;0.83;0.43;;;;;;;18.25;53.33;100849.19;4923324;29;20770;-72
2022/05/22 11:39:36;;;;;;;1.37;0.40;;;;;;;18.25;52.76;100843.06;4925533;29;20539;-72
2022/05/22 11:42:18;;;;;;;1.27;0.40;;;;;;;18.16;50.82;100849.69;4926780;29;20195;-71
2022/05/22 11:45:12;;;;;;;0.73;0.50;;;;;;;18.05;50.73;100846.81;4919549;29;20219;-70
2022/05/22 11:48:00;;;;;;;0.60;0.37;;;;;;;18.29;53.42;100837.53;4927170;29;20219;-75
2022/05/22 11:50:37;;;;;;;1.93;0.60;;;;;;;18.17;49.93;100844.34;4924843;29;20207;-70
2022/05/22 11:53:20;;;;;;;2.37;0.50;;;;;;;18.55;50.17;100828.16;4925856;29;20203;-71
2022/05/22 11:56:05;;;;;;;0.30;0.30;;;;;;;18.90;53.68;100824.47;4924684;29;20282;-74
2022/05/22 11:58:37;;;;;;;1.07;0.50;;;;;;;18.88;53.67;100824.56;4917580;29;20833;-70
2022/05/22 12:01:14;;;;;;;0.50;0.50;;;;;;;18.71;52.46;100824.66;4921281;29;20211;-70
2022/05/22 12:03:54;;;;;;;1.27;0.50;;;;;;;18.41;50.77;100833.34;4921872;29;20667;-70
2022/05/22 12:06:36;;;;;;;0.50;0.40;;;;;;;18.71;51.07;100820.25;4930623;29;20207;-70